createdAt,value
2024-05-09T00:00:00.057Z,73.69
2024-05-09T00:02:31.953Z,73.69
2024-05-09T00:05:01.382Z,73.70
2024-05-09T00:07:30.655Z,73.74
2024-05-09T00:09:59.840Z,74.17
2024-05-09T00:12:29.177Z,73.84
2024-05-09T00:14:58.396Z,73.70
2024-05-09T00:17:27.720Z,73.84
2024-05-09T00:19:59.730Z,73.96
2024-05-09T00:22:28.918Z,74.04
2024-05-09T00:24:58.120Z,73.89
2024-05-09T00:27:27.406Z,73.92
2024-05-09T00:29:57.048Z,73.80
2024-05-09T00:32:26.475Z,74.32
2024-05-09T00:34:56.123Z,74.12
2024-05-09T00:37:27.909Z,73.74
2024-05-09T00:39:57.131Z,74.25
2024-05-09T00:42:26.314Z,73.84
2024-05-09T00:44:55.459Z,74.03
2024-05-09T00:47:24.917Z,74.04
2024-05-09T00:49:54.295Z,74.04
2024-05-09T00:52:25.057Z,73.92
2024-05-09T00:54:57.032Z,74.24
2024-05-09T00:57:26.790Z,73.72
2024-05-09T00:59:56.365Z,73.81
2024-05-09T01:02:25.740Z,73.87
2024-05-09T01:04:55.600Z,73.98
2024-05-09T01:07:25.061Z,73.71
2024-05-09T01:09:56.927Z,73.83
2024-05-09T01:12:27.376Z,73.99
2024-05-09T01:14:56.677Z,74.10
2024-05-09T01:17:26.040Z,73.80
2024-05-09T01:19:55.411Z,73.84
2024-05-09T01:22:26.141Z,73.87
2024-05-09T01:24:57.952Z,73.58
2024-05-09T01:27:27.195Z,73.98
2024-05-09T01:29:56.349Z,73.97
2024-05-09T01:32:25.820Z,73.71
2024-05-09T01:34:55.118Z,73.73
2024-05-09T01:37:24.325Z,73.65
2024-05-09T01:39:53.583Z,73.69
2024-05-09T01:42:25.454Z,73.67
2024-05-09T01:44:54.701Z,73.71
2024-05-09T01:47:24.055Z,73.83
2024-05-09T01:49:53.399Z,73.79
2024-05-09T01:52:22.589Z,73.52
2024-05-09T01:54:51.794Z,74.00
2024-05-09T01:57:21.128Z,73.66
2024-05-09T01:59:52.995Z,73.94
2024-05-09T02:02:22.325Z,73.78
2024-05-09T02:04:51.713Z,73.37
2024-05-09T02:07:20.992Z,74.00
2024-05-09T02:09:50.277Z,73.58
2024-05-09T02:12:19.607Z,74.07
2024-05-09T02:14:49.806Z,73.73
2024-05-09T02:17:21.770Z,74.10
2024-05-09T02:19:51.106Z,74.01
2024-05-09T02:22:20.372Z,73.37
2024-05-09T02:24:49.621Z,74.03
2024-05-09T02:27:18.840Z,73.96
2024-05-09T02:29:48.159Z,74.01
2024-05-09T02:32:17.474Z,73.67
2024-05-09T02:34:49.388Z,74.01
2024-05-09T02:37:18.635Z,73.86
2024-05-09T02:39:45.226Z,73.93
2024-05-09T02:42:14.388Z,73.56
2024-05-09T02:44:41.052Z,73.62
2024-05-09T02:47:10.341Z,73.65
2024-05-09T02:49:37.163Z,73.59
2024-05-09T02:52:09.374Z,74.00
2024-05-09T02:54:35.990Z,73.91
2024-05-09T02:57:05.342Z,73.76
2024-05-09T02:59:32.045Z,73.90
2024-05-09T03:02:01.478Z,74.01
2024-05-09T03:04:28.189Z,74.01
2024-05-09T03:06:57.446Z,73.69
2024-05-09T03:09:26.683Z,73.97
2024-05-09T03:11:56.010Z,73.66
2024-05-09T03:14:22.797Z,73.54
2024-05-09T03:16:52.036Z,74.11
2024-05-09T03:19:18.835Z,73.81
2024-05-09T03:21:48.141Z,73.74
2024-05-09T03:24:14.792Z,74.12
2024-05-09T03:26:46.992Z,74.00
2024-05-09T03:29:13.627Z,73.68
2024-05-09T03:31:42.883Z,73.88
2024-05-09T03:34:11.227Z,73.87
2024-05-09T03:36:43.577Z,74.04
2024-05-09T03:39:13.166Z,73.66
2024-05-09T03:41:42.416Z,73.53
2024-05-09T03:44:14.344Z,73.85
2024-05-09T03:46:41.141Z,73.63
2024-05-09T03:49:10.636Z,73.80
2024-05-09T03:51:37.451Z,73.91
2024-05-09T03:54:06.711Z,73.43
2024-05-09T03:56:33.380Z,73.52
2024-05-09T03:59:02.674Z,73.89
2024-05-09T04:01:32.105Z,73.46
2024-05-09T04:04:01.432Z,73.86
2024-05-09T04:06:28.079Z,73.78
2024-05-09T04:08:57.249Z,73.75
2024-05-09T04:11:23.972Z,73.66
2024-05-09T04:13:53.262Z,73.57
2024-05-09T04:16:19.866Z,73.93
2024-05-09T04:18:51.762Z,73.72
2024-05-09T04:21:18.441Z,73.20
2024-05-09T04:23:47.733Z,73.73
2024-05-09T04:26:14.440Z,73.63
2024-05-09T04:28:43.692Z,73.35
2024-05-09T04:31:10.414Z,73.29
2024-05-09T04:33:39.700Z,73.50
2024-05-09T04:36:09.306Z,73.43
2024-05-09T04:38:38.613Z,73.33
2024-05-09T04:41:05.291Z,73.45
2024-05-09T04:43:35.280Z,73.20
2024-05-09T04:46:01.884Z,73.29
2024-05-09T04:48:31.394Z,73.25
2024-05-09T04:51:00.784Z,73.67
2024-05-09T04:53:30.043Z,73.42
2024-05-09T04:55:59.580Z,73.66
2024-05-09T04:58:26.217Z,73.58
2024-05-09T05:00:55.447Z,73.59
2024-05-09T05:03:22.472Z,73.48
2024-05-09T05:05:52.028Z,73.49
2024-05-09T05:08:19.513Z,73.50
2024-05-09T05:10:51.776Z,73.32
2024-05-09T05:13:23.730Z,73.59
2024-05-09T05:15:56.964Z,73.57
2024-05-09T05:18:25.372Z,73.39
2024-05-09T05:20:54.863Z,73.51
2024-05-09T05:23:22.413Z,73.33
2024-05-09T05:25:55.209Z,73.28
2024-05-09T05:28:22.358Z,73.46
2024-05-09T05:30:52.027Z,73.53
2024-05-09T05:33:19.463Z,73.30
2024-05-09T05:35:49.067Z,73.37
2024-05-09T05:38:15.865Z,73.80
2024-05-09T05:40:45.215Z,73.37
2024-05-09T05:43:18.483Z,73.32
2024-05-09T05:45:47.780Z,73.30
2024-05-09T05:48:16.255Z,73.33
2024-05-09T05:50:46.330Z,73.52
2024-05-09T05:53:13.189Z,73.24
2024-05-09T05:55:43.039Z,73.54
2024-05-09T05:58:09.757Z,73.55
2024-05-09T06:00:43.213Z,73.24
2024-05-09T06:03:11.557Z,73.28
2024-05-09T06:05:43.342Z,73.73
2024-05-09T06:08:10.473Z,73.39
2024-05-09T06:10:41.106Z,73.24
2024-05-09T06:13:10.418Z,73.55
2024-05-09T06:15:43.450Z,73.12
2024-05-09T06:18:11.971Z,73.11
2024-05-09T06:20:43.598Z,73.55
2024-05-09T06:23:11.050Z,73.26
2024-05-09T06:25:40.694Z,73.10
2024-05-09T06:28:07.362Z,73.30
2024-05-09T06:30:40.103Z,73.47
2024-05-09T06:33:13.461Z,73.41
2024-05-09T06:35:45.167Z,73.55
2024-05-09T06:38:12.351Z,72.97
2024-05-09T06:40:43.914Z,73.67
2024-05-09T06:43:11.521Z,73.70
2024-05-09T06:45:40.911Z,73.37
2024-05-09T06:48:11.397Z,73.28
2024-05-09T06:50:41.278Z,73.41
2024-05-09T06:53:08.511Z,73.01
2024-05-09T06:55:38.586Z,73.44
2024-05-09T06:58:05.871Z,73.69
2024-05-09T07:00:39.276Z,73.62
2024-05-09T07:03:12.455Z,73.27
2024-05-09T07:05:43.370Z,73.20
2024-05-09T07:08:10.257Z,73.16
2024-05-09T07:10:39.597Z,73.53
2024-05-09T07:13:07.965Z,73.66
2024-05-09T07:15:37.193Z,73.67
2024-05-09T07:18:10.775Z,73.06
2024-05-09T07:20:41.092Z,73.42
2024-05-09T07:23:08.684Z,73.39
2024-05-09T07:25:37.921Z,73.31
2024-05-09T07:28:04.923Z,73.46
2024-05-09T07:30:35.088Z,73.19
2024-05-09T07:33:02.919Z,73.54
2024-05-09T07:35:35.324Z,73.45
2024-05-09T07:38:02.052Z,73.63
2024-05-09T07:40:35.991Z,73.25
2024-05-09T07:43:03.823Z,73.86
2024-05-09T07:53:36.591Z,73.36
2024-05-09T07:55:58.570Z,73.29
2024-05-09T07:58:27.769Z,73.66
2024-05-09T08:00:57.403Z,73.18
2024-05-09T08:03:24.366Z,73.29
2024-05-09T08:05:56.360Z,73.72
2024-05-09T08:08:23.034Z,73.62
2024-05-09T08:10:52.798Z,73.52
2024-05-09T08:13:19.460Z,73.37
2024-05-09T08:15:48.818Z,73.43
2024-05-09T08:18:15.792Z,73.49
2024-05-09T08:20:45.283Z,73.71
2024-05-09T08:23:14.457Z,73.29
2024-05-09T08:25:43.676Z,73.39
2024-05-09T08:28:10.533Z,73.11
2024-05-09T08:30:40.038Z,73.30
2024-05-09T08:33:07.649Z,73.44
2024-05-09T08:35:37.250Z,73.59
2024-05-09T08:38:04.765Z,72.94
2024-05-09T08:40:38.200Z,72.88
2024-05-09T08:43:07.071Z,72.89
2024-05-09T08:45:38.427Z,73.10
2024-05-09T08:48:08.151Z,72.80
2024-05-09T08:50:39.524Z,72.69
2024-05-09T08:53:07.107Z,73.24
2024-05-09T08:55:41.815Z,73.25
2024-05-09T08:58:10.423Z,72.97
2024-05-09T09:00:41.296Z,73.12
2024-05-09T09:03:09.442Z,73.00
2024-05-09T09:05:40.973Z,72.72
2024-05-09T09:08:08.801Z,73.01
2024-05-09T09:10:42.273Z,72.97
2024-05-09T09:13:11.041Z,72.50
2024-05-09T09:15:49.325Z,72.85
2024-05-09T09:18:16.843Z,72.60
2024-05-09T09:20:46.522Z,72.44
2024-05-09T09:23:13.240Z,72.93
2024-05-09T09:25:45.186Z,72.89
2024-05-09T09:28:12.676Z,72.70
2024-05-09T09:30:42.483Z,72.59
2024-05-09T09:33:10.051Z,72.26
2024-05-09T09:35:41.583Z,72.30
2024-05-09T09:38:08.484Z,72.46
2024-05-09T09:40:42.893Z,72.66
2024-05-09T09:43:18.838Z,73.02
2024-05-09T09:45:49.316Z,72.41
2024-05-09T09:48:16.641Z,72.13
2024-05-09T09:50:46.123Z,72.24
2024-05-09T09:53:13.059Z,72.73
2024-05-09T09:55:42.818Z,72.46
2024-05-09T09:58:13.259Z,71.93
2024-05-09T10:00:46.334Z,71.98
2024-05-09T10:03:13.226Z,71.98
2024-05-09T10:05:45.275Z,72.06
2024-05-09T10:08:14.978Z,72.18
2024-05-09T10:10:48.299Z,72.05
2024-05-09T10:13:15.204Z,72.42
2024-05-09T10:15:50.683Z,72.21
2024-05-09T10:18:17.685Z,72.07
2024-05-09T10:20:49.332Z,72.51
2024-05-09T10:23:23.644Z,72.18
2024-05-09T10:26:03.034Z,72.19
2024-05-09T10:28:30.862Z,72.09
2024-05-09T10:31:09.681Z,72.20
2024-05-09T10:33:37.487Z,72.60
2024-05-09T10:36:07.060Z,72.50
2024-05-09T10:38:33.890Z,72.28
2024-05-09T10:41:03.563Z,72.45
2024-05-09T10:43:31.176Z,72.21
2024-05-09T10:46:00.489Z,72.30
2024-05-09T10:48:29.948Z,72.27
2024-05-09T10:50:59.771Z,72.66
2024-05-09T10:53:26.410Z,72.32
2024-05-09T10:55:59.188Z,72.14
2024-05-09T10:58:26.243Z,72.35
2024-05-09T11:00:56.269Z,72.29
2024-05-09T11:03:23.517Z,72.65
2024-05-09T11:05:56.139Z,72.54
2024-05-09T11:08:23.659Z,72.85
2024-05-09T11:10:54.810Z,72.81
2024-05-09T11:13:27.923Z,72.57
2024-05-09T11:15:57.241Z,72.56
2024-05-09T11:18:25.386Z,72.42
2024-05-09T11:20:58.696Z,72.71
2024-05-09T11:23:26.561Z,72.78
2024-05-09T11:25:56.158Z,72.60
2024-05-09T11:28:23.250Z,72.58
2024-05-09T11:30:52.951Z,72.57
2024-05-09T11:33:19.775Z,72.60
2024-05-09T11:35:49.419Z,72.93
2024-05-09T11:38:18.717Z,72.92
2024-05-09T11:40:47.963Z,72.58
2024-05-09T11:43:14.646Z,72.60
2024-05-09T11:45:43.881Z,72.57
2024-05-09T11:48:10.632Z,72.72
2024-05-09T11:50:39.927Z,72.88
2024-05-09T11:53:06.598Z,72.66
2024-05-09T11:55:38.701Z,72.84
2024-05-09T11:58:05.381Z,72.94
2024-05-09T12:00:37.411Z,73.01
2024-05-09T12:03:05.594Z,72.92
2024-05-09T12:05:35.727Z,72.44
2024-05-09T12:08:02.706Z,72.61
2024-05-09T12:10:34.754Z,73.10
2024-05-09T12:13:06.958Z,72.95
2024-05-09T12:15:38.826Z,72.87
2024-05-09T12:18:06.425Z,72.83
2024-05-09T12:20:38.862Z,73.06
2024-05-09T12:23:08.010Z,72.66
2024-05-09T12:25:38.938Z,72.46
2024-05-09T12:28:08.926Z,72.76
2024-05-09T12:30:40.714Z,73.15
2024-05-09T12:33:09.027Z,73.16
2024-05-09T12:35:38.740Z,73.03
2024-05-09T12:38:05.351Z,72.73
2024-05-09T12:40:37.650Z,72.68
2024-05-09T12:43:10.148Z,72.65
2024-05-09T12:45:40.719Z,72.63
2024-05-09T12:48:12.330Z,72.83
2024-05-09T12:50:40.063Z,73.28
2024-05-09T12:53:09.331Z,72.71
2024-05-09T12:55:44.524Z,72.71
2024-05-09T12:58:24.967Z,73.22
2024-05-09T13:00:51.945Z,72.85
2024-05-09T13:03:21.806Z,72.81
2024-05-09T13:05:49.131Z,73.03
2024-05-09T13:08:18.458Z,72.88
2024-05-09T13:10:45.220Z,72.85
2024-05-09T13:13:14.913Z,72.49
2024-05-09T13:15:44.427Z,72.20
2024-05-09T13:18:13.708Z,72.61
2024-05-09T13:20:40.375Z,72.42
2024-05-09T13:23:09.689Z,72.33
2024-05-09T13:25:36.853Z,72.22
2024-05-09T13:28:07.028Z,72.01
2024-05-09T13:30:39.395Z,72.05
2024-05-09T13:33:14.504Z,72.02
2024-05-09T13:35:45.562Z,71.64
2024-05-09T13:38:19.264Z,71.97
2024-05-09T13:40:46.422Z,71.48
2024-05-09T13:43:15.881Z,71.54
2024-05-09T13:45:42.795Z,71.96
2024-05-09T13:48:14.802Z,72.10
2024-05-09T13:50:41.875Z,71.99
2024-05-09T13:53:11.736Z,71.60
2024-05-09T13:55:39.135Z,71.60
2024-05-09T13:58:09.508Z,71.84
2024-05-09T14:00:44.382Z,71.79
2024-05-09T14:03:21.063Z,71.60
2024-05-09T14:05:49.409Z,71.64
2024-05-09T14:08:20.000Z,71.73
2024-05-09T14:10:47.487Z,71.81
2024-05-09T14:13:17.500Z,71.26
2024-05-09T14:15:44.375Z,71.47
2024-05-09T14:18:14.448Z,71.67
2024-05-09T14:20:44.078Z,71.99
2024-05-09T14:23:13.433Z,71.54
2024-05-09T14:25:42.521Z,71.58
2024-05-09T14:28:13.495Z,71.24
2024-05-09T14:30:40.448Z,71.58
2024-05-09T14:33:10.022Z,71.12
2024-05-09T14:35:37.660Z,71.42
2024-05-09T14:38:10.643Z,71.21
2024-05-09T14:40:42.176Z,71.18
2024-05-09T14:43:14.117Z,71.10
2024-05-09T14:45:41.618Z,71.04
2024-05-09T14:48:11.282Z,70.75
2024-05-09T14:50:39.810Z,70.95
2024-05-09T14:53:14.006Z,70.73
2024-05-09T14:55:42.782Z,71.00
2024-05-09T14:58:13.677Z,71.36
2024-05-09T15:00:46.007Z,70.89
2024-05-09T15:03:19.528Z,70.36
2024-05-09T15:05:47.247Z,70.63
2024-05-09T15:08:19.485Z,70.86
2024-05-09T15:10:49.969Z,71.02
2024-05-09T15:13:17.493Z,70.82
2024-05-09T15:15:47.038Z,70.86
2024-05-09T15:18:13.942Z,71.08
2024-05-09T15:20:43.489Z,71.51
2024-05-09T15:23:10.271Z,71.05
2024-05-09T15:25:44.195Z,71.44
2024-05-09T15:28:11.098Z,71.52
2024-05-09T15:30:42.788Z,71.23
2024-05-09T15:33:11.848Z,71.61
2024-05-09T15:35:41.973Z,71.85
2024-05-09T15:38:08.804Z,71.20
2024-05-09T15:40:40.470Z,71.79
2024-05-09T15:43:11.593Z,71.45
2024-05-09T15:45:41.686Z,71.51
2024-05-09T15:48:09.340Z,71.45
2024-05-09T15:50:41.402Z,71.66
2024-05-09T15:53:10.100Z,71.37
2024-05-09T15:55:39.797Z,71.91
2024-05-09T15:58:07.260Z,71.89
2024-05-09T16:00:42.427Z,71.72
2024-05-09T16:03:11.789Z,71.58
2024-05-09T16:05:42.259Z,71.65
2024-05-09T16:08:09.331Z,71.63
2024-05-09T16:10:42.439Z,71.98
2024-05-09T16:13:11.172Z,71.67
2024-05-09T16:15:43.194Z,71.39
2024-05-09T16:18:09.992Z,71.65
2024-05-09T16:20:41.644Z,72.12
2024-05-09T16:23:13.043Z,71.89
2024-05-09T16:25:40.202Z,71.94
2024-05-09T16:28:10.860Z,72.00
2024-05-09T16:30:40.708Z,72.27
2024-05-09T16:33:10.825Z,71.79
2024-05-09T16:35:37.895Z,71.75
2024-05-09T16:38:07.833Z,71.91
2024-05-09T16:40:38.999Z,71.97
2024-05-09T16:43:11.086Z,72.01
2024-05-09T16:45:41.351Z,72.09
2024-05-09T16:48:11.333Z,71.72
2024-05-09T16:50:38.398Z,72.12
2024-05-09T16:53:08.639Z,71.90
2024-05-09T16:55:35.767Z,72.13
2024-05-09T16:58:06.523Z,72.22
2024-05-09T17:00:40.494Z,71.98
2024-05-09T17:03:16.264Z,71.71
2024-05-09T17:05:43.785Z,72.12
2024-05-09T17:08:13.492Z,72.49
2024-05-09T17:10:40.181Z,72.20
2024-05-09T17:13:10.123Z,72.12
2024-05-09T17:15:39.505Z,71.75
2024-05-09T17:18:09.789Z,71.86
2024-05-09T17:20:41.618Z,71.96
2024-05-09T17:23:13.136Z,72.27
2024-05-09T17:25:43.451Z,72.00
2024-05-09T17:28:10.461Z,72.18
2024-05-09T17:30:41.934Z,72.33
2024-05-09T17:33:10.529Z,72.38
2024-05-09T17:35:45.782Z,72.01
2024-05-09T17:38:12.651Z,72.43
2024-05-09T17:40:41.914Z,71.55
2024-05-09T17:43:10.719Z,70.13
2024-05-09T17:45:42.622Z,69.40
2024-05-09T17:48:10.726Z,69.52
2024-05-09T17:50:44.004Z,69.87
2024-05-09T17:53:11.325Z,69.40
2024-05-09T17:55:41.259Z,70.06
2024-05-09T17:58:08.659Z,69.76
2024-05-09T18:00:41.116Z,70.02
2024-05-09T18:03:11.826Z,70.23
2024-05-09T18:05:45.585Z,70.28
2024-05-09T18:08:13.252Z,70.46
2024-05-09T18:10:43.326Z,70.65
2024-05-09T18:13:10.937Z,70.93
2024-05-09T18:15:41.407Z,71.53
2024-05-09T18:18:09.306Z,71.17
2024-05-09T18:20:43.938Z,70.46
2024-05-09T18:23:17.747Z,70.65
2024-05-09T18:25:48.539Z,70.81
2024-05-09T18:28:15.702Z,70.50
2024-05-09T18:30:45.515Z,70.54
2024-05-09T18:33:12.701Z,70.79
2024-05-09T18:35:43.449Z,70.63
2024-05-09T18:38:10.173Z,70.57
2024-05-09T18:40:43.946Z,70.70
2024-05-09T18:43:13.005Z,70.28
2024-05-09T18:45:42.456Z,70.01
2024-05-09T18:48:09.865Z,70.07
2024-05-09T18:50:41.219Z,69.96
2024-05-09T18:53:08.936Z,69.76
2024-05-09T18:55:38.415Z,69.76
2024-05-09T18:58:07.819Z,70.12
2024-05-09T19:00:39.940Z,70.26
2024-05-09T19:03:11.715Z,70.15
2024-05-09T19:05:44.221Z,70.05
2024-05-09T19:08:12.415Z,70.14
2024-05-09T19:10:42.023Z,69.97
2024-05-09T19:13:13.412Z,70.09
2024-05-09T19:15:44.365Z,69.86
2024-05-09T19:18:12.068Z,70.01
2024-05-09T19:20:41.726Z,70.16
2024-05-09T19:23:08.443Z,69.94
2024-05-09T19:25:37.863Z,69.98
2024-05-09T19:28:05.571Z,69.48
2024-05-09T19:30:41.283Z,69.92
2024-05-09T19:33:10.549Z,69.94
2024-05-09T19:35:40.784Z,70.10
2024-05-09T19:38:07.457Z,69.78
2024-05-09T19:40:36.918Z,69.63
2024-05-09T19:43:04.981Z,69.93
2024-05-09T19:45:37.799Z,70.13
2024-05-09T19:48:05.433Z,69.71
2024-05-09T19:50:42.051Z,69.82
2024-05-09T19:53:11.559Z,69.49
2024-05-09T19:55:41.059Z,69.95
2024-05-09T19:58:08.330Z,70.03
2024-05-09T20:00:42.845Z,69.75
2024-05-09T20:03:14.082Z,69.82
2024-05-09T20:05:41.912Z,70.27
2024-05-09T20:08:11.327Z,69.68
2024-05-09T20:10:38.954Z,69.79
2024-05-09T20:13:08.935Z,69.56
2024-05-09T20:15:38.678Z,69.78
2024-05-09T20:18:08.395Z,69.76
2024-05-09T20:20:39.675Z,69.60
2024-05-09T20:23:11.830Z,69.79
2024-05-09T20:25:38.455Z,69.81
2024-05-09T20:28:08.228Z,69.48
2024-05-09T20:30:35.892Z,69.69
2024-05-09T20:33:09.618Z,69.57
2024-05-09T20:35:36.866Z,69.91
2024-05-09T20:38:06.251Z,69.73
2024-05-09T20:40:36.948Z,70.00
2024-05-09T20:43:08.612Z,69.48
2024-05-09T20:45:35.805Z,69.93
2024-05-09T20:48:08.779Z,70.02
2024-05-09T20:50:39.824Z,70.04
2024-05-09T20:53:11.722Z,69.65
2024-05-09T20:55:39.184Z,70.10
2024-05-09T20:58:08.624Z,70.06
2024-05-09T21:00:40.133Z,74.85
2024-05-09T21:03:17.309Z,70.95
2024-05-09T21:05:44.902Z,71.44
2024-05-09T21:08:14.269Z,70.68
2024-05-09T21:10:41.400Z,70.13
2024-05-09T21:13:10.679Z,70.60
2024-05-09T21:15:37.334Z,70.65
2024-05-09T21:18:06.781Z,70.22
2024-05-09T21:20:37.419Z,70.69
2024-05-09T21:23:06.874Z,70.71
2024-05-09T21:25:33.475Z,71.12
2024-05-09T21:28:02.673Z,71.11
2024-05-09T21:30:38.556Z,70.97
2024-05-09T21:33:13.642Z,70.59
2024-05-09T21:35:44.702Z,70.80
2024-05-09T21:38:15.042Z,70.72
2024-05-09T21:40:41.987Z,70.40
2024-05-09T21:43:11.707Z,71.03
2024-05-09T21:45:38.876Z,70.64
2024-05-09T21:48:09.016Z,71.31
2024-05-09T21:50:40.239Z,71.28
2024-05-09T21:53:14.050Z,70.78
2024-05-09T21:55:41.056Z,71.52
2024-05-09T21:58:10.548Z,71.20
2024-05-09T22:00:39.385Z,71.41
2024-05-09T22:03:09.939Z,71.70
2024-05-09T22:05:37.863Z,71.24
2024-05-09T22:08:07.781Z,71.60
2024-05-09T22:10:37.453Z,71.85
2024-05-09T22:13:07.318Z,71.62
2024-05-09T22:15:35.465Z,71.68
2024-05-09T22:18:05.627Z,71.85
2024-05-09T22:20:37.295Z,71.54
2024-05-09T22:23:09.031Z,71.67
2024-05-09T22:25:39.142Z,71.41
2024-05-09T22:28:08.801Z,71.97
2024-05-09T22:30:38.906Z,72.24
2024-05-09T22:33:11.046Z,73.11
2024-05-09T22:35:38.759Z,75.27
2024-05-09T22:38:08.250Z,75.75
2024-05-09T22:40:45.448Z,73.64
2024-05-09T22:43:24.513Z,73.46
2024-05-09T22:45:52.033Z,72.00
2024-05-09T22:48:21.509Z,70.91
2024-05-09T22:50:48.587Z,71.42
2024-05-09T22:53:18.061Z,72.20
2024-05-09T22:55:44.655Z,72.37
2024-05-09T22:58:13.922Z,72.55
2024-05-09T23:00:43.299Z,73.14
2024-05-09T23:03:14.118Z,73.06
2024-05-09T23:05:40.807Z,73.70
2024-05-09T23:08:11.256Z,73.21
2024-05-09T23:10:38.460Z,72.95
2024-05-09T23:13:08.654Z,72.58
2024-05-09T23:15:35.785Z,72.93
2024-05-09T23:18:08.596Z,72.97
2024-05-09T23:20:38.799Z,72.60
2024-05-09T23:23:10.635Z,72.45
2024-05-09T23:25:38.347Z,72.35
2024-05-09T23:28:07.927Z,72.58
2024-05-09T23:30:38.703Z,71.82
2024-05-09T23:33:13.936Z,71.92
2024-05-09T23:35:41.675Z,72.19
2024-05-09T23:38:10.893Z,72.56
2024-05-09T23:40:40.301Z,72.31
2024-05-09T23:43:11.871Z,72.29
2024-05-09T23:45:39.407Z,71.83
2024-05-09T23:48:09.259Z,71.95
2024-05-09T23:50:40.124Z,71.77
2024-05-09T23:53:10.891Z,72.12
2024-05-09T23:55:38.400Z,71.76
2024-05-09T23:58:08.195Z,72.09
